Impacts TAF Board
For situational awareness. Not to be used for flight planning purposes.
IDs:

KDTW - Detroit Metro/Wayne, MI, US

Issued at 0520 UTC 22 Oct 2021
Updated at 0613 UTC 22 Oct 2021
Potential Impact None Slight Moderate High
Time0553Z 22/07Z 22/08Z 22/09Z 22/10Z 22/11Z 22/12Z 22/13Z 22/14Z 22/15Z 22/16Z 22/17Z 22/18Z 22/19Z>>
Type OBS PRVL PRVL PRVL PRVL PRVL PRVL PRVL PRVL PRVL PRVL PRVL PRVL PRVL
VIS 9 >6 >6 >6 >6 >6 >6 >6 >6 >6 >6 >6 >6 >6
CIG 16 15 15 25 25 25 25 25 25 40 40 40 40 40
Cover OVC OVC OVC BKN BKN BKN BKN BKN BKN BKN BKN BKN BKN BKN
FltCat MVFR MVFR MVFR MVFR MVFR MVFR MVFR MVFR MVFR VFR VFR VFR VFR VFR
WX -- -- -- -- -- -- -- -- -- -- -- -- -- --
WDir 340 320 320 310 310 310 310 310 310 310 310 310 310 310
WSpd 8 11 11 8 8 8 8 8 8 6 6 6 6 6
WGst -- -- -- -- -- -- -- -- -- -- -- -- -- --
Raw TAF
KDTW 220520Z 2206/2312 32011KT P6SM OVC015
  FM220900 31008KT P6SM BKN025
  FM221500 31006KT P6SM BKN040
  FM230000 VRB03KT P6SM SCT025 BKN050 OVC140


Raw METAR
KDTW 220553Z 34008KT 9SM FEW008 BKN016 OVC025 08/04 A2997 RMK AO2 SLP150 60001 T00830039 10122 20083 51020
KDTW 220516Z 35012G17KT 9SM FEW008 BKN016 OVC025 09/05 A2997 RMK AO2 T00890050
KDTW 220453Z 33011KT 9SM SCT008 BKN014 OVC025 09/05 A2996 RMK AO2 SLP144 T00890050 401940089
KDTW 220440Z 34010G19KT 9SM SCT008 BKN014 OVC025 09/06 A2995 RMK AO2 T00890056
KDTW 220353Z 34011KT 10SM FEW010 BKN015 OVC040 09/07 A2993 RMK AO2 SLP137 T00940067

METAR Board
Radar Display
Forecast Discussion
For situational awareness. Not to be used for flight planning purposes.